Time;durP1;ratioP1;P1;durP2;ratioP2;P2;SDS_P1;SDS_P2;PMS_P1;PMS_P2;Temp;Humidity;BMP_temperature;BMP_pressure;BME280_temperature;BME280_humidity;BME280_pressure;Samples;Min_cycle;Max_cycle;Signal;HPM_P1;HPM_P2
2021/07/10 00:03:00;;;;;;;5.22;2.25;;;;;;;0.01;0.00;59042.03;10235957;28;20081;-58
2021/07/10 00:07:58;;;;;;;6.60;3.10;;;;;;;0.01;0.00;59042.03;10235700;28;20069;-58
2021/07/10 00:12:57;;;;;;;6.85;2.47;;;;;;;0.01;0.00;59042.03;10235308;28;20045;-58
2021/07/10 00:17:56;;;;;;;2.13;1.88;;;;;;;0.01;0.00;59042.03;10235460;28;20073;-59
2021/07/10 00:22:56;;;;;;;4.72;2.28;;;;;;;0.01;0.00;59042.03;10234262;28;20514;-58
2021/07/10 00:27:55;;;;;;;5.47;2.55;;;;;;;0.01;0.00;59042.03;10234404;28;20042;-58
2021/07/10 00:32:54;;;;;;;2.65;2.45;;;;;;;0.01;0.00;59042.03;10234469;28;20057;-58
2021/07/10 00:37:53;;;;;;;4.35;2.30;;;;;;;0.01;0.00;59042.03;10233121;28;20073;-58
2021/07/10 00:42:53;;;;;;;7.40;2.33;;;;;;;0.01;0.00;59042.03;10234136;28;20077;-58
2021/07/10 00:47:52;;;;;;;3.33;2.38;;;;;;;0.01;0.00;59042.03;10234921;28;20088;-59
2021/07/10 00:52:51;;;;;;;5.53;2.00;;;;;;;0.01;0.00;59042.03;10233806;28;20049;-58
2021/07/10 00:57:53;;;;;;;2.95;2.30;;;;;;;0.01;0.00;59042.03;10234122;28;20495;-58
2021/07/10 01:02:55;;;;;;;4.60;2.17;;;;;;;0.01;0.00;59042.03;10233613;28;20088;-57
2021/07/10 01:07:56;;;;;;;4.78;2.35;;;;;;;0.01;0.00;59042.03;10216941;28;20533;-58
2021/07/10 01:12:57;;;;;;;5.60;4.63;;;;;;;0.01;0.00;59042.03;10233521;28;20049;-52
2021/07/10 01:17:57;;;;;;;4.63;3.70;;;;;;;0.01;0.00;59042.03;10233693;28;20041;-56
2021/07/10 01:22:58;;;;;;;5.97;2.67;;;;;;;0.01;0.00;59042.03;10233961;28;20080;-56
2021/07/10 01:27:57;;;;;;;7.15;3.30;;;;;;;0.01;0.00;59042.03;10233912;28;20073;-56
2021/07/10 01:32:57;;;;;;;4.13;3.08;;;;;;;0.01;0.00;59042.03;10234126;28;20042;-55
2021/07/10 01:37:57;;;;;;;8.25;2.60;;;;;;;0.01;0.00;59042.03;10233561;28;20080;-54
2021/07/10 01:42:56;;;;;;;6.10;3.10;;;;;;;0.01;0.00;59042.03;10233785;28;20084;-55
2021/07/10 01:47:55;;;;;;;3.70;2.28;;;;;;;0.01;0.00;59042.03;10238043;28;20097;-56
2021/07/10 01:52:54;;;;;;;9.48;2.60;;;;;;;0.01;0.00;59042.03;10240166;28;20064;-57
2021/07/10 01:57:55;;;;;;;7.55;3.10;;;;;;;0.01;0.00;59042.03;10240543;28;20049;-54
2021/07/10 02:02:54;;;;;;;4.45;3.20;;;;;;;0.01;0.00;59042.03;10222898;28;20423;-56
2021/07/10 02:07:56;;;;;;;4.10;3.10;;;;;;;0.01;0.00;59042.03;10241433;28;20077;-56
2021/07/10 02:12:58;;;;;;;8.30;3.35;;;;;;;0.01;0.00;59042.03;10238374;28;20088;-54
2021/07/10 02:17:58;;;;;;;5.22;2.90;;;;;;;0.01;0.00;59042.03;10239843;28;20049;-56
2021/07/10 02:22:57;;;;;;;6.32;3.28;;;;;;;0.01;0.00;59042.03;10239612;28;20076;-55
2021/07/10 02:27:58;;;;;;;7.25;2.70;;;;;;;0.01;0.00;59042.03;10239526;28;20044;-55
2021/07/10 02:32:58;;;;;;;4.50;2.65;;;;;;;0.01;0.00;59042.03;10239337;28;20044;-54
2021/07/10 02:37:59;;;;;;;12.45;3.95;;;;;;;0.01;0.00;59042.03;10238974;28;20423;-55
2021/07/10 02:42:59;;;;;;;7.75;3.25;;;;;;;0.01;0.00;59042.03;10239092;28;20088;-55
2021/07/10 02:47:59;;;;;;;8.98;4.85;;;;;;;0.01;0.00;59042.03;10237576;28;20404;-54
2021/07/10 02:53:01;;;;;;;6.55;4.30;;;;;;;0.01;0.00;59042.03;10238061;28;20053;-56
2021/07/10 02:58:01;;;;;;;7.20;4.00;;;;;;;0.01;0.00;59042.03;10219416;28;20099;-55
2021/07/10 03:03:00;;;;;;;9.98;4.00;;;;;;;0.01;0.00;59042.03;10237914;28;20045;-56
2021/07/10 03:07:59;;;;;;;7.93;3.42;;;;;;;0.01;0.00;59042.03;10237521;28;20077;-55
2021/07/10 03:12:59;;;;;;;6.95;3.70;;;;;;;0.01;0.00;59042.03;10236989;28;20074;-54
2021/07/10 03:17:59;;;;;;;4.28;3.25;;;;;;;0.01;0.00;59042.03;10237666;28;20046;-54
2021/07/10 03:22:58;;;;;;;8.38;3.33;;;;;;;0.01;0.00;59042.03;10237820;28;20045;-55
2021/07/10 03:27:57;;;;;;;4.53;3.47;;;;;;;0.01;0.00;59042.03;10237291;28;20092;-54
2021/07/10 03:32:56;;;;;;;4.15;2.92;;;;;;;0.01;0.00;59042.03;10237223;28;20045;-54
2021/07/10 03:37:57;;;;;;;8.57;3.67;;;;;;;0.01;0.00;59042.03;10236844;28;20495;-55
2021/07/10 03:42:56;;;;;;;11.80;3.58;;;;;;;0.01;0.00;59042.03;10236629;28;20411;-54
2021/07/10 03:47:55;;;;;;;9.50;3.42;;;;;;;0.01;0.00;59042.03;10235765;28;20092;-55
2021/07/10 03:52:54;;;;;;;10.77;2.92;;;;;;;0.01;0.00;59042.03;10242642;28;20053;-55
2021/07/10 03:57:54;;;;;;;4.90;2.65;;;;;;;0.01;0.00;59042.03;10275056;28;20075;-52
2021/07/10 04:02:53;;;;;;;5.07;3.65;;;;;;;0.01;0.00;59042.03;10275337;28;20044;-49
2021/07/10 04:07:52;;;;;;;10.07;2.92;;;;;;;0.01;0.00;59042.03;10254597;28;20084;-55
2021/07/10 04:12:50;;;;;;;5.75;3.60;;;;;;;0.01;0.00;59042.03;10276085;28;20100;-55
2021/07/10 04:17:51;;;;;;;11.18;3.78;;;;;;;0.01;0.00;59042.03;10276933;28;20497;-52
2021/07/10 04:22:50;;;;;;;16.67;10.65;;;;;;;0.01;0.00;59042.03;10274052;28;20037;-51
2021/07/10 04:27:49;;;;;;;20.35;5.32;;;;;;;0.01;0.00;59042.03;10257540;28;20447;-55
2021/07/10 04:32:48;;;;;;;10.20;3.97;;;;;;;0.01;0.00;59042.03;10274312;28;20509;-55
2021/07/10 04:37:49;;;;;;;5.22;4.00;;;;;;;0.01;0.00;59042.03;10276347;28;20470;-52
2021/07/10 04:42:48;;;;;;;7.53;4.70;;;;;;;0.01;0.00;59042.03;10276245;28;20041;-56
2021/07/10 04:47:47;;;;;;;7.70;3.65;;;;;;;0.01;0.00;59042.03;10310262;28;20505;-57
2021/07/10 04:52:46;;;;;;;9.02;4.25;;;;;;;0.01;0.00;59042.03;10315906;28;20040;-56
2021/07/10 04:57:46;;;;;;;7.50;4.80;;;;;;;0.01;0.00;59042.03;10314310;28;20087;-54
2021/07/10 05:02:45;;;;;;;8.68;3.63;;;;;;;0.01;0.00;59042.03;10314871;28;20083;-57
2021/07/10 05:07:45;;;;;;;4.97;4.32;;;;;;;0.01;0.00;59042.03;10313635;28;20087;-53
2021/07/10 05:12:45;;;;;;;9.70;3.83;;;;;;;0.01;0.00;59042.03;10314100;28;20076;-52
2021/07/10 05:17:45;;;;;;;15.05;4.18;;;;;;;0.01;0.00;59042.03;10313693;28;20044;-55
2021/07/10 05:22:44;;;;;;;8.15;4.25;;;;;;;0.01;0.00;59042.03;10319972;28;20182;-56
2021/07/10 05:27:43;;;;;;;12.23;5.07;;;;;;;0.01;0.00;59042.03;10321653;28;20072;-56
2021/07/10 05:32:44;;;;;;;5.65;3.83;;;;;;;0.01;0.00;59042.03;10323335;28;20044;-55
2021/07/10 05:37:43;;;;;;;8.80;4.43;;;;;;;0.01;0.00;59042.03;10322058;28;20063;-51
2021/07/10 05:42:42;;;;;;;7.10;4.47;;;;;;;0.01;0.00;59042.03;10322164;28;20517;-56
2021/07/10 05:47:41;;;;;;;8.48;4.40;;;;;;;0.01;0.00;59042.03;10317659;28;20084;-55
2021/07/10 05:52:41;;;;;;;4.45;3.67;;;;;;;0.01;0.00;59042.03;10322028;28;20525;-56
2021/07/10 05:57:40;;;;;;;8.23;3.50;;;;;;;0.01;0.00;59042.03;10322532;28;20056;-54
2021/07/10 06:02:39;;;;;;;5.10;3.25;;;;;;;0.01;0.00;59042.03;10318919;28;20075;-57
2021/07/10 06:07:38;;;;;;;5.43;3.15;;;;;;;0.01;0.00;59042.03;10318071;28;20529;-50
2021/07/10 06:12:38;;;;;;;5.32;3.55;;;;;;;0.01;0.00;59042.03;10312183;28;20499;-55
2021/07/10 06:17:37;;;;;;;8.20;3.33;;;;;;;0.01;0.00;59042.03;10319324;28;20079;-53
2021/07/10 06:22:37;;;;;;;6.03;3.70;;;;;;;0.01;0.00;59042.03;10321202;28;20155;-55
2021/07/10 06:27:36;;;;;;;7.28;3.47;;;;;;;0.01;0.00;59042.03;10306738;28;20130;-52
2021/07/10 06:32:38;;;;;;;13.30;3.78;;;;;;;0.01;0.00;59042.03;10287200;28;20429;-56
2021/07/10 06:37:37;;;;;;;5.18;3.60;;;;;;;0.01;0.00;59042.03;10320346;28;20048;-54
2021/07/10 06:42:37;;;;;;;6.25;3.28;;;;;;;0.01;0.00;59042.03;10299158;28;20555;-54
2021/07/10 06:47:37;;;;;;;5.72;3.65;;;;;;;0.01;0.00;59042.03;10279221;28;20174;-58
2021/07/10 06:52:37;;;;;;;9.07;4.30;;;;;;;0.01;0.00;59042.03;10276712;28;20549;-58
2021/07/10 06:57:35;;;;;;;5.10;3.58;;;;;;;0.01;0.00;59042.03;10257258;28;20069;-59
2021/07/10 07:02:34;;;;;;;7.05;2.97;;;;;;;0.01;0.00;59042.03;10279759;28;20041;-58
2021/07/10 07:07:34;;;;;;;6.95;3.72;;;;;;;0.01;0.00;59042.03;10273287;28;20076;-57
2021/07/10 07:12:33;;;;;;;9.10;3.15;;;;;;;0.01;0.00;59042.03;10270469;28;20497;-57
2021/07/10 07:17:32;;;;;;;4.10;2.83;;;;;;;0.01;0.00;59042.03;10278642;28;20052;-58
2021/07/10 07:22:31;;;;;;;3.35;2.58;;;;;;;0.01;0.00;59042.03;10277381;28;20076;-57
2021/07/10 07:27:31;;;;;;;7.32;3.22;;;;;;;0.01;0.00;59042.03;10262889;28;20083;-58
2021/07/10 07:32:30;;;;;;;4.75;2.58;;;;;;;0.01;0.00;59042.03;10233139;28;20379;-57
2021/07/10 07:37:29;;;;;;;5.25;2.95;;;;;;;0.01;0.00;59042.03;10270165;28;20069;-57
2021/07/10 07:42:28;;;;;;;6.90;4.30;;;;;;;0.01;0.00;59042.03;10260149;28;20084;-58
2021/07/10 07:47:28;;;;;;;5.03;3.38;;;;;;;0.01;0.00;59042.03;10303839;28;20229;-57
2021/07/10 07:52:27;;;;;;;6.50;2.42;;;;;;;0.01;0.00;59042.03;10309554;28;20063;-57
2021/07/10 07:57:26;;;;;;;4.72;2.88;;;;;;;0.01;0.00;59042.03;10312992;28;20051;-58
2021/07/10 08:02:25;;;;;;;4.78;2.80;;;;;;;0.01;0.00;59042.03;10317194;28;20059;-58
2021/07/10 08:07:25;;;;;;;7.45;2.70;;;;;;;0.01;0.00;59042.03;10310872;28;20079;-58
2021/07/10 08:12:23;;;;;;;6.47;3.25;;;;;;;0.01;0.00;59042.03;10312165;28;20658;-58
2021/07/10 08:17:22;;;;;;;4.72;2.58;;;;;;;0.01;0.00;59042.03;10312320;28;20489;-58
2021/07/10 08:22:21;;;;;;;6.43;3.20;;;;;;;0.01;0.00;59042.03;10293324;28;20103;-58
2021/07/10 08:27:21;;;;;;;6.45;3.30;;;;;;;0.01;0.00;59042.03;10307128;28;20485;-58
2021/07/10 08:32:20;;;;;;;3.83;2.83;;;;;;;0.01;0.00;59042.03;10317244;28;20072;-58
2021/07/10 08:37:19;;;;;;;6.43;3.28;;;;;;;0.01;0.00;59042.03;10313340;28;20055;-58
2021/07/10 08:42:18;;;;;;;10.35;3.72;;;;;;;0.01;0.00;59042.03;10311834;28;20422;-58
2021/07/10 08:47:19;;;;;;;7.18;3.42;;;;;;;0.01;0.00;59042.03;10313402;28;20088;-58
2021/07/10 08:52:18;;;;;;;7.75;4.57;;;;;;;0.01;0.00;59042.03;10312830;28;20044;-59
2021/07/10 08:57:18;;;;;;;6.18;3.55;;;;;;;0.01;0.00;59042.03;10313180;28;20529;-58
2021/07/10 09:02:19;;;;;;;13.93;3.75;;;;;;;0.01;0.00;59042.03;10313780;28;20501;-58
2021/07/10 09:07:17;;;;;;;6.20;3.45;;;;;;;0.01;0.00;59042.03;10313814;28;20087;-58
2021/07/10 09:12:28;;;;;;;3.95;2.63;;;;;;;0.01;0.00;59042.03;10313999;28;20553;-58
2021/07/10 09:17:28;;;;;;;8.52;3.13;;;;;;;0.01;0.00;59042.03;10312697;28;20068;-58
2021/07/10 09:22:29;;;;;;;5.10;2.85;;;;;;;0.01;0.00;59042.03;10295428;28;20138;-58
2021/07/10 09:27:28;;;;;;;4.22;2.38;;;;;;;0.01;0.00;59042.03;10313524;28;20084;-58
2021/07/10 09:32:28;;;;;;;3.90;2.53;;;;;;;0.01;0.00;59042.03;10312263;28;20041;-57
2021/07/10 09:37:30;;;;;;;5.53;2.40;;;;;;;0.01;0.00;59042.03;10313505;28;20354;-58
2021/07/10 09:42:40;;;;;;;7.72;2.90;;;;;;;0.01;0.00;59042.03;10312097;28;20059;-58
2021/07/10 09:47:41;;;;;;;5.40;2.30;;;;;;;0.01;0.00;59042.03;10312632;28;20096;-58
2021/07/10 09:52:41;;;;;;;11.45;5.30;;;;;;;0.01;0.00;59042.03;10312421;28;20082;-51
2021/07/10 09:57:42;;;;;;;8.13;3.42;;;;;;;0.01;0.00;59042.03;10313415;28;20037;-54
2021/07/10 10:02:45;;;;;;;6.85;3.53;;;;;;;0.01;0.00;59042.03;10312969;28;20489;-57
2021/07/10 10:07:45;;;;;;;5.97;2.50;;;;;;;0.01;0.00;59042.03;10315933;28;20115;-57
2021/07/10 10:12:44;;;;;;;4.90;2.70;;;;;;;0.01;0.00;59042.03;10320065;28;20064;-58
2021/07/10 10:17:44;;;;;;;5.07;2.83;;;;;;;0.01;0.00;59042.03;10320141;28;20036;-57
2021/07/10 10:22:43;;;;;;;8.27;2.97;;;;;;;0.01;0.00;59042.03;10319342;28;20044;-57
2021/07/10 10:27:42;;;;;;;4.90;2.47;;;;;;;0.01;0.00;59042.03;10319211;28;20122;-58
2021/07/10 10:32:43;;;;;;;6.40;2.58;;;;;;;0.01;0.00;59042.03;10319670;28;20044;-58
2021/07/10 10:37:43;;;;;;;7.60;3.35;;;;;;;0.01;0.00;59042.03;10301211;28;20040;-58
2021/07/10 10:42:44;;;;;;;4.28;2.90;;;;;;;0.01;0.00;59042.03;10318544;28;20048;-58
2021/07/10 10:47:49;;;;;;;5.82;2.53;;;;;;;0.01;0.00;59042.03;10317718;28;20088;-58
2021/07/10 10:52:51;;;;;;;3.40;2.50;;;;;;;0.01;0.00;59042.03;10318891;28;20044;-58
2021/07/10 10:57:52;;;;;;;7.25;2.90;;;;;;;0.01;0.00;59042.03;10318962;28;20489;-58
2021/07/10 11:02:55;;;;;;;6.60;2.83;;;;;;;0.01;0.00;59042.03;10317327;28;20076;-54
2021/07/10 11:08:36;;;;;;;6.23;3.13;;;;;;;0.01;0.00;59042.03;10318439;28;20076;-58
2021/07/10 11:13:36;;;;;;;6.60;3.22;;;;;;;0.01;0.00;59042.03;10318480;28;20041;-57
2021/07/10 11:18:50;;;;;;;9.38;2.53;;;;;;;0.01;0.00;59042.03;10315571;28;20516;-58
2021/07/10 11:23:50;;;;;;;4.85;2.80;;;;;;;0.01;0.00;59042.03;10317305;28;20072;-58
2021/07/10 11:28:56;;;;;;;2.47;2.28;;;;;;;0.01;0.00;59042.03;10317203;28;20481;-58
2021/07/10 11:34:06;;;;;;;5.88;3.85;;;;;;;0.01;0.00;59042.03;10316506;28;20044;-57
2021/07/10 11:39:37;;;;;;;5.57;3.30;;;;;;;0.01;0.00;59042.03;10315370;28;20470;-57
2021/07/10 11:44:43;;;;;;;5.28;3.08;;;;;;;0.01;0.00;59042.03;10317281;28;20059;-57
2021/07/10 11:49:42;;;;;;;5.18;3.13;;;;;;;0.01;0.00;59042.03;10314488;28;20083;-57
2021/07/10 11:54:50;;;;;;;5.82;3.22;;;;;;;0.01;0.00;59042.03;10316721;28;20468;-58
2021/07/10 11:59:49;;;;;;;6.57;3.38;;;;;;;0.01;0.00;59042.03;10314914;28;20509;-57
2021/07/10 12:05:01;;;;;;;4.55;2.80;;;;;;;0.01;0.00;59042.03;10311936;28;20068;-54
2021/07/10 12:10:01;;;;;;;5.57;3.25;;;;;;;0.01;0.00;59042.03;10314651;28;20470;-58
2021/07/10 12:15:00;;;;;;;4.78;2.35;;;;;;;0.01;0.00;59042.03;10315348;28;20055;-58
2021/07/10 12:20:06;;;;;;;4.82;3.10;;;;;;;0.01;0.00;59042.03;10314475;28;20045;-58
2021/07/10 12:25:07;;;;;;;4.50;2.50;;;;;;;0.01;0.00;59042.03;10314602;28;20075;-57
2021/07/10 12:30:07;;;;;;;6.55;2.78;;;;;;;0.01;0.00;59042.03;10312818;28;20075;-58
2021/07/10 12:35:07;;;;;;;5.57;3.28;;;;;;;0.01;0.00;59042.03;10311086;28;20532;-58
2021/07/10 12:40:10;;;;;;;3.22;2.70;;;;;;;0.01;0.00;59042.03;10311968;28;20079;-57
2021/07/10 12:45:09;;;;;;;;;;;;;;;0.01;0.00;59042.03;10310460;28;20528;-58
2021/07/10 12:50:09;;;;;;;7.07;4.43;;;;;;;0.01;0.00;59042.03;10309876;28;20023;-58
2021/07/10 12:55:12;;;;;;;6.10;2.90;;;;;;;0.01;0.00;59042.03;10282528;28;20515;-57
2021/07/10 13:00:14;;;;;;;5.63;2.65;;;;;;;0.01;0.00;59042.03;10273347;28;20052;-58
2021/07/10 13:05:19;;;;;;;8.20;2.90;;;;;;;0.01;0.00;59042.03;10273301;28;20049;-58
2021/07/10 13:10:28;;;;;;;3.33;2.72;;;;;;;0.01;0.00;59042.03;10272595;28;20343;-57
2021/07/10 13:15:30;;;;;;;10.82;3.53;;;;;;;0.01;0.00;59042.03;10273338;28;20087;-58
2021/07/10 13:20:31;;;;;;;8.10;2.78;;;;;;;0.01;0.00;59042.03;10273288;28;20077;-58
2021/07/10 13:25:41;;;;;;;7.40;3.75;;;;;;;0.01;0.00;59042.03;10273260;28;20077;-58
2021/07/10 13:30:40;;;;;;;6.65;3.45;;;;;;;0.01;0.00;59042.03;10273745;28;20069;-59
2021/07/10 13:35:39;;;;;;;8.70;3.03;;;;;;;0.01;0.00;59042.03;10274644;28;20048;-58
2021/07/10 13:40:39;;;;;;;5.00;2.80;;;;;;;0.01;0.00;59042.03;10292902;28;20068;-58
2021/07/10 13:45:37;;;;;;;6.15;2.80;;;;;;;0.01;0.00;59042.03;10264956;28;20088;-58
2021/07/10 13:50:36;;;;;;;6.70;3.03;;;;;;;0.01;0.00;59042.03;10241529;28;20076;-58
2021/07/10 13:55:35;;;;;;;4.95;2.67;;;;;;;0.01;0.00;59042.03;10240407;28;20164;-59
2021/07/10 14:00:36;;;;;;;10.95;3.20;;;;;;;0.01;0.00;59042.03;10241069;28;20038;-58
2021/07/10 14:05:38;;;;;;;9.27;3.15;;;;;;;0.01;0.00;59042.03;10240757;28;20054;-59
2021/07/10 14:10:38;;;;;;;6.93;2.83;;;;;;;0.01;0.00;59042.03;10253425;28;20076;-58
2021/07/10 14:15:40;;;;;;;5.88;2.85;;;;;;;0.01;0.00;59042.03;10280893;28;20052;-59
2021/07/10 14:20:40;;;;;;;8.05;3.00;;;;;;;0.01;0.00;59042.03;10281372;28;20048;-58
2021/07/10 14:25:52;;;;;;;7.05;4.30;;;;;;;0.01;0.00;59042.03;10281259;28;20037;-58
2021/07/10 14:30:53;;;;;;;6.13;3.08;;;;;;;0.01;0.00;59042.03;10280658;28;20490;-59
2021/07/10 14:35:51;;;;;;;3.90;3.08;;;;;;;0.01;0.00;59042.03;10280405;28;20493;-59
2021/07/10 14:40:53;;;;;;;8.77;3.17;;;;;;;0.01;0.00;59042.03;10280336;28;20139;-59
2021/07/10 14:45:53;;;;;;;8.55;3.75;;;;;;;0.01;0.00;59042.03;10279834;28;20392;-59
2021/07/10 14:50:52;;;;;;;12.52;3.20;;;;;;;0.01;0.00;59042.03;10260906;28;20087;-59
2021/07/10 14:55:51;;;;;;;5.82;2.95;;;;;;;0.01;0.00;59042.03;10260897;28;20064;-58
2021/07/10 15:00:49;;;;;;;5.03;2.83;;;;;;;0.01;0.00;59042.03;10278945;28;20048;-59
2021/07/10 15:05:50;;;;;;;10.60;3.00;;;;;;;0.01;0.00;59042.03;10279065;28;20048;-59
2021/07/10 15:10:49;;;;;;;7.32;3.55;;;;;;;0.01;0.00;59042.03;10278192;28;20076;-58
2021/07/10 15:15:48;;;;;;;8.88;3.60;;;;;;;0.01;0.00;59042.03;10278237;28;20049;-59
2021/07/10 15:20:46;;;;;;;5.47;3.75;;;;;;;0.01;0.00;59042.03;10278914;28;20517;-58
2021/07/10 15:25:50;;;;;;;6.03;3.15;;;;;;;0.01;0.00;59042.03;10278592;28;20402;-59
2021/07/10 15:30:49;;;;;;;7.88;3.95;;;;;;;0.01;0.00;59042.03;10276013;28;20072;-56
2021/07/10 15:35:48;;;;;;;10.05;3.88;;;;;;;0.01;0.00;59042.03;10272063;28;20056;-58
2021/07/10 15:40:48;;;;;;;10.90;3.97;;;;;;;0.01;0.00;59042.03;10273899;28;20072;-58
2021/07/10 15:45:47;;;;;;;7.32;4.07;;;;;;;0.01;0.00;59042.03;10291685;28;20087;-59
2021/07/10 15:50:46;;;;;;;13.52;7.32;;;;;;;0.01;0.00;59042.03;10315073;28;20083;-59
2021/07/10 15:55:45;;;;;;;6.82;4.05;;;;;;;0.01;0.00;59042.03;10316822;28;20045;-58
2021/07/10 16:00:45;;;;;;;8.57;3.38;;;;;;;0.01;0.00;59042.03;10317247;28;20056;-58
2021/07/10 16:05:44;;;;;;;8.02;3.60;;;;;;;0.01;0.00;59042.03;10316668;28;20505;-59
2021/07/10 16:10:43;;;;;;;8.48;4.78;;;;;;;0.01;0.00;59042.03;10317001;28;20072;-58
2021/07/10 16:15:42;;;;;;;5.90;4.63;;;;;;;0.01;0.00;59042.03;10317152;28;20063;-56
2021/07/10 16:20:42;;;;;;;5.50;3.50;;;;;;;0.01;0.00;59042.03;10316524;28;20040;-56
2021/07/10 16:25:43;;;;;;;7.70;3.60;;;;;;;0.01;0.00;59042.03;10298764;28;20045;-57
2021/07/10 16:30:42;;;;;;;9.73;3.33;;;;;;;0.01;0.00;59042.03;10316672;28;20067;-56
2021/07/10 16:35:42;;;;;;;8.85;4.20;;;;;;;0.01;0.00;59042.03;10316501;28;20040;-57
2021/07/10 16:40:41;;;;;;;11.63;5.18;;;;;;;0.01;0.00;59042.03;10316292;28;20036;-59
2021/07/10 16:45:40;;;;;;;6.78;3.63;;;;;;;0.01;0.00;59042.03;10314467;28;20076;-58
2021/07/10 16:50:40;;;;;;;9.02;3.90;;;;;;;0.01;0.00;59042.03;10310409;28;20095;-58
2021/07/10 16:55:40;;;;;;;16.35;5.13;;;;;;;0.01;0.00;59042.03;10307588;28;20071;-57
2021/07/10 17:00:40;;;;;;;5.72;3.85;;;;;;;0.01;0.00;59042.03;10309910;28;20071;-58
2021/07/10 17:05:39;;;;;;;11.07;6.18;;;;;;;0.01;0.00;59042.03;10310395;28;20501;-59
2021/07/10 17:11:01;;;;;;;10.25;7.05;;;;;;;0.01;0.00;59042.03;10314156;28;20076;-58
2021/07/10 17:16:01;;;;;;;12.23;8.70;;;;;;;0.01;0.00;59042.03;10312718;28;20079;-58
2021/07/10 17:21:00;;;;;;;22.40;9.80;;;;;;;0.01;0.00;59042.03;10318980;28;20071;-59
2021/07/10 17:26:00;;;;;;;16.42;9.60;;;;;;;0.01;0.00;59042.03;10313358;28;20072;-58
2021/07/10 17:31:06;;;;;;;13.07;9.00;;;;;;;0.01;0.00;59042.03;10305232;28;20115;-55
2021/07/10 17:36:05;;;;;;;11.85;8.57;;;;;;;0.01;0.00;59042.03;10300361;28;20186;-58
2021/07/10 17:41:06;;;;;;;14.80;9.52;;;;;;;0.01;0.00;59042.03;10295641;28;20075;-57
2021/07/10 17:46:05;;;;;;;14.43;5.75;;;;;;;0.01;0.00;59042.03;10262932;28;20081;-61
2021/07/10 17:51:04;;;;;;;15.77;5.13;;;;;;;0.01;0.00;59042.03;10270731;28;20080;-61
2021/07/10 17:56:05;;;;;;;9.68;6.00;;;;;;;0.01;0.00;59042.03;10280119;28;20041;-60
2021/07/10 18:01:04;;;;;;;17.00;5.38;;;;;;;0.01;0.00;59042.03;10280869;28;20475;-60
2021/07/10 18:06:03;;;;;;;13.43;6.15;;;;;;;0.01;0.00;59042.03;10276427;28;20061;-61
2021/07/10 18:11:02;;;;;;;13.13;6.93;;;;;;;0.01;0.00;59042.03;10278793;28;20081;-62
2021/07/10 18:16:02;;;;;;;23.48;8.30;;;;;;;0.01;0.00;59042.03;10276546;28;20458;-61
2021/07/10 18:21:01;;;;;;;12.85;7.95;;;;;;;0.01;0.00;59042.03;10258494;28;20060;-58
2021/07/10 18:26:01;;;;;;;12.93;6.80;;;;;;;0.01;0.00;59042.03;10257779;28;20503;-58
2021/07/10 18:31:01;;;;;;;24.75;13.10;;;;;;;0.01;0.00;59042.03;10260124;28;20504;-59
2021/07/10 18:36:00;;;;;;;16.15;7.82;;;;;;;0.01;0.00;59042.03;10265197;28;20092;-58
2021/07/10 18:40:59;;;;;;;14.98;8.48;;;;;;;0.01;0.00;59042.03;10274755;28;20075;-59
2021/07/10 18:45:58;;;;;;;11.95;7.68;;;;;;;0.01;0.00;59042.03;10279912;28;20080;-57
2021/07/10 18:50:59;;;;;;;10.48;6.30;;;;;;;0.01;0.00;59042.03;10318423;28;20083;-58
2021/07/10 18:55:57;;;;;;;22.25;7.03;;;;;;;0.01;0.00;59042.03;10318108;28;20067;-58
2021/07/10 19:00:56;;;;;;;10.93;7.65;;;;;;;0.01;0.00;59042.03;10317691;28;20079;-58
2021/07/10 19:05:55;;;;;;;11.73;5.82;;;;;;;0.01;0.00;59042.03;10305527;28;20088;-58
2021/07/10 19:10:57;;;;;;;13.77;6.53;;;;;;;0.01;0.00;59042.03;10315743;28;20546;-59
2021/07/10 19:15:56;;;;;;;15.95;5.45;;;;;;;0.01;0.00;59042.03;10306098;28;20073;-58
2021/07/10 19:20:55;;;;;;;12.07;5.53;;;;;;;0.01;0.00;59042.03;10293595;28;20076;-57
2021/07/10 19:25:55;;;;;;;9.88;5.80;;;;;;;0.01;0.00;59042.03;10293939;28;20068;-57
2021/07/10 19:30:54;;;;;;;12.90;5.50;;;;;;;0.01;0.00;59042.03;10303622;28;20075;-58
2021/07/10 19:35:53;;;;;;;16.33;5.45;;;;;;;0.01;0.00;59042.03;10309778;28;20077;-59
2021/07/10 19:40:52;;;;;;;15.40;5.43;;;;;;;0.01;0.00;59042.03;10300437;28;20060;-58
2021/07/10 19:45:52;;;;;;;5.80;4.55;;;;;;;0.01;0.00;59042.03;10294679;28;20110;-58
2021/07/10 19:50:51;;;;;;;12.15;4.97;;;;;;;0.01;0.00;59042.03;10311561;28;20068;-59
2021/07/10 19:55:50;;;;;;;15.65;6.55;;;;;;;0.01;0.00;59042.03;10310292;28;20060;-58
2021/07/10 20:00:49;;;;;;;10.93;5.75;;;;;;;0.01;0.00;59042.03;10300523;28;20075;-59
2021/07/10 20:05:49;;;;;;;15.07;5.30;;;;;;;0.01;0.00;59042.03;10306247;28;20110;-59
2021/07/10 20:10:48;;;;;;;9.68;5.63;;;;;;;0.01;0.00;59042.03;10311528;28;20091;-59
2021/07/10 20:15:48;;;;;;;6.18;5.35;;;;;;;0.01;0.00;59042.03;10310028;28;20378;-56
2021/07/10 20:20:49;;;;;;;11.18;5.45;;;;;;;0.01;0.00;59042.03;10307689;28;20481;-58
2021/07/10 20:25:47;;;;;;;12.82;5.68;;;;;;;0.01;0.00;59042.03;10313010;28;20525;-58
2021/07/10 20:30:47;;;;;;;13.00;5.35;;;;;;;0.01;0.00;59042.03;10307631;28;20080;-58
2021/07/10 20:35:45;;;;;;;17.73;5.47;;;;;;;0.01;0.00;59042.03;10312726;28;20064;-55
2021/07/10 20:40:46;;;;;;;13.73;5.78;;;;;;;0.01;0.00;59042.03;10295052;28;20072;-58
2021/07/10 20:45:45;;;;;;;8.00;4.65;;;;;;;0.01;0.00;59042.03;10297657;28;20083;-58
2021/07/10 20:50:44;;;;;;;10.25;5.15;;;;;;;0.01;0.00;59042.03;10308477;28;20088;-58
2021/07/10 20:55:42;;;;;;;14.73;5.90;;;;;;;0.01;0.00;59042.03;10302305;28;20071;-58
2021/07/10 21:00:43;;;;;;;19.73;13.85;;;;;;;0.01;0.00;59042.03;10310147;28;20068;-56
2021/07/10 21:05:42;;;;;;;18.63;15.68;;;;;;;0.01;0.00;59042.03;10313229;28;20071;-58
2021/07/10 21:10:40;;;;;;;6.78;5.70;;;;;;;0.01;0.00;59042.03;10301727;28;20076;-57
2021/07/10 21:15:39;;;;;;;7.32;6.28;;;;;;;0.01;0.00;59042.03;10312792;28;20049;-54
2021/07/10 21:20:40;;;;;;;11.75;5.45;;;;;;;0.01;0.00;59042.03;10281348;28;20084;-58
2021/07/10 21:25:40;;;;;;;15.48;7.88;;;;;;;0.01;0.00;59042.03;10308646;28;20064;-58
2021/07/10 21:30:41;;;;;;;9.90;5.57;;;;;;;0.01;0.00;59042.03;10310533;28;20516;-56
2021/07/10 21:35:42;;;;;;;7.75;3.97;;;;;;;0.01;0.00;59042.03;10312161;28;20080;-59
2021/07/10 21:40:40;;;;;;;11.30;7.18;;;;;;;0.01;0.00;59042.03;10314538;28;20048;-59
2021/07/10 21:45:39;;;;;;;10.43;5.68;;;;;;;0.01;0.00;59042.03;10295601;28;20520;-60
2021/07/10 21:50:38;;;;;;;7.95;4.95;;;;;;;0.01;0.00;59042.03;10315177;28;20179;-60
2021/07/10 21:55:38;;;;;;;9.77;4.82;;;;;;;0.01;0.00;59042.03;10314898;28;20073;-60
2021/07/10 22:01:25;;;;;;;8.88;5.57;;;;;;;0.01;0.00;59042.03;10314561;28;20083;-59
2021/07/10 22:06:24;;;;;;;11.82;5.63;;;;;;;0.01;0.00;59042.03;10320207;28;20095;-59
2021/07/10 22:11:26;;;;;;;5.30;4.10;;;;;;;0.01;0.00;59042.03;10313622;28;20068;-59
2021/07/10 22:16:25;;;;;;;7.95;4.95;;;;;;;0.01;0.00;59042.03;10321551;28;20049;-59
2021/07/10 22:21:25;;;;;;;13.05;5.30;;;;;;;0.01;0.00;59042.03;10321284;28;20049;-58
2021/07/10 22:26:24;;;;;;;9.73;4.75;;;;;;;0.01;0.00;59042.03;10301216;28;20076;-60
2021/07/10 22:31:25;;;;;;;13.18;5.03;;;;;;;0.01;0.00;59042.03;10321525;28;20122;-59
2021/07/10 22:36:25;;;;;;;8.65;5.15;;;;;;;0.01;0.00;59042.03;10320035;28;20040;-60
2021/07/10 22:41:25;;;;;;;9.70;5.00;;;;;;;0.01;0.00;59042.03;10321765;28;20144;-59
2021/07/10 22:46:25;;;;;;;11.10;5.10;;;;;;;0.01;0.00;59042.03;10321004;28;20127;-60
2021/07/10 22:51:24;;;;;;;9.52;5.03;;;;;;;0.01;0.00;59042.03;10320533;28;20498;-60
2021/07/10 22:56:23;;;;;;;8.77;5.40;;;;;;;0.01;0.00;59042.03;10320642;28;20438;-60
2021/07/10 23:01:22;;;;;;;10.88;4.50;;;;;;;0.01;0.00;59042.03;10320320;28;20478;-60
2021/07/10 23:06:22;;;;;;;11.10;4.60;;;;;;;0.01;0.00;59042.03;10320352;28;20040;-59
2021/07/10 23:11:22;;;;;;;8.60;4.60;;;;;;;0.01;0.00;59042.03;10320226;28;20044;-59
2021/07/10 23:16:21;;;;;;;10.32;3.90;;;;;;;0.01;0.00;59042.03;10319074;28;20040;-59
2021/07/10 23:21:22;;;;;;;10.05;4.85;;;;;;;0.01;0.00;59042.03;10299531;28;20045;-59
2021/07/10 23:26:23;;;;;;;8.88;4.78;;;;;;;0.01;0.00;59042.03;10319538;28;20417;-59
2021/07/10 23:31:25;;;;;;;10.05;4.75;;;;;;;0.01;0.00;59042.03;10319481;28;20441;-60
2021/07/10 23:36:25;;;;;;;6.68;4.57;;;;;;;0.01;0.00;59042.03;10318524;28;20079;-59
2021/07/10 23:41:25;;;;;;;8.30;5.65;;;;;;;0.01;0.00;59042.03;10319015;28;20045;-59
2021/07/10 23:46:23;;;;;;;10.95;5.43;;;;;;;0.01;0.00;59042.03;10317814;28;20048;-60